Adventure Hornblower — WDA3017 — position and weather

sailwx.info

Track history (hours):
 
Tides and Currents Weather Stations Pressure Air Temp Water Temp Dewpoint Dewpoint Depression Visibility Wind Speed Wind Dir Waves Ship Positions

Adventure Hornblower

Owner: Hornblower Cruises and Events, San Diego, CA. More information available from US FCC via Universal Licensing System and Coast Guard Vessel Documentation Center.

Last reported at 2018-Aug-21 01:42 UTC. Time now 2018-Aug-21 04:21 UTC.
Position N 32°43' W 117°11'.

Length 49 m; draft 1.8 m.

Type: Passenger vessel. MMSI: 366793760.

Date/timePositionNaut miles runAvg speedWind from/ knotsBaromVisibWave heightAir tempDewpointWater temp
2018-Aug-21 01:42N 32°43' W 117°11'0 1.6
2018-Aug-21 01:27N 32°43' W 117°10'3 7.4
2018-Aug-21 01:03N 32°42' W 117°14'112.4
2018-Aug-21 01:00N 32°41' W 117°14'3 4.7
2018-Aug-21 00:19N 32°43' W 117°10'1 2.6
2018-Aug-21 00:01N 32°42' W 117°10'011.3
2018-Aug-20 23:59N 32°42' W 117°10'0 0.7
2018-Aug-20 23:27N 32°42' W 117°10'1 1.6
2018-Aug-20 22:52N 32°43' W 117°11'3 9.3
2018-Aug-20 22:31N 32°42' W 117°14'3 4.1
2018-Aug-20 21:41N 32°43' W 117°10'1 3.3
2018-Aug-20 21:30N 32°42' W 117°10'0 0.7
2018-Aug-20 20:52N 32°42' W 117°11'1 0.8
2018-Aug-20 20:15N 32°43' W 117°10'0 0.0
2018-Aug-20 20:03N 32°43' W 117°10'0 0.2
2018-Aug-20 19:44N 32°43' W 117°10'2 8.4
2018-Aug-20 19:30N 32°43' W 117°13'4 9.8
2018-Aug-20 19:03N 32°39' W 117°15'113.2
2018-Aug-20 19:00N 32°39' W 117°15'713.7
2018-Aug-20 18:30N 32°42' W 117°23'612.2
2018-Aug-20 18:03N 32°46' W 117°26'113.7
2018-Aug-20 18:00N 32°47' W 117°27'2 3.8
2018-Aug-20 17:30N 32°46' W 117°25'612.9
2018-Aug-20 17:04N 32°41' W 117°21'112.5
2018-Aug-20 17:00N 32°41' W 117°20'510.4
2018-Aug-20 16:30N 32°40' W 117°14'4 6.9
2018-Aug-20 15:54N 32°43' W 117°10'0 0.0
2018-Aug-20 15:30N 32°43' W 117°10'0 0.0
2018-Aug-20 03:27N 32°43' W 117°11'0 0.5
2018-Aug-20 02:51N 32°43' W 117°11'2 6.3
2018-Aug-20 02:30N 32°41' W 117°09'3 6.5
2018-Aug-20 02:00N 32°43' W 117°12'2 3.8
2018-Aug-20 01:30N 32°42' W 117°14'3 2.2
2018-Aug-20 00:09N 32°43' W 117°11'0 1.3
2018-Aug-19 23:59N 32°43' W 117°11'0 0.0
2018-Aug-19 20:27N 32°43' W 117°11'1 1.5
2018-Aug-19 19:59N 32°43' W 117°11'510.6
2018-Aug-19 19:30N 32°40' W 117°16'714.9
2018-Aug-19 19:00N 32°44' W 117°24'510.9
2018-Aug-19 18:30N 32°45' W 117°30'4 8.1
2018-Aug-19 18:00N 32°48' W 117°32'611.5
2018-Aug-19 17:30N 32°45' W 117°27'713.9
2018-Aug-19 17:00N 32°40' W 117°21'611.6
2018-Aug-19 16:30N 32°40' W 117°14'4 5.4
2018-Aug-19 15:47N 32°43' W 117°10'0 0.6
2018-Aug-19 15:18N 32°43' W 117°11'0 0.0
2018-Aug-19 05:35N 32°43' W 117°10'0 5.5
2018-Aug-19 05:30N 32°43' W 117°11'4 6.7
2018-Aug-19 04:56N 32°40' W 117°08'2 4.8
2018-Aug-19 04:30N 32°42' W 117°09'0 0.6
2018-Aug-19 04:00N 32°41' W 117°09'3 6.6
2018-Aug-19 03:30N 32°43' W 117°13'3 5.3
2018-Aug-19 03:00N 32°40' W 117°14'3 6.5
2018-Aug-19 02:30N 32°43' W 117°12'1 0.2
2018-Aug-18 20:24N 32°43' W 117°11'0 0.8
2018-Aug-18 19:59N 32°43' W 117°10'2 4.2
2018-Aug-18 19:31N 32°43' W 117°13'510.5
2018-Aug-18 19:00N 32°38' W 117°16'713.1
2018-Aug-18 18:31N 32°39' W 117°23'510.3
2018-Aug-18 17:59N 32°42' W 117°29'5 9.3
2018-Aug-18 17:30N 32°41' W 117°23'3 6.6
2018-Aug-18 17:00N 32°41' W 117°20'5 9.9
2018-Aug-18 16:31N 32°40' W 117°14'4 4.0
2018-Aug-18 15:33N 32°43' W 117°10'0 0.0
2018-Aug-18 15:30N 32°43' W 117°10'0 0.0
2018-Aug-18 04:54N 32°43' W 117°10'1 2.7
2018-Aug-18 04:31N 32°42' W 117°10'0 0.0
2018-Aug-18 04:01N 32°42' W 117°10'0 0.0
2018-Aug-18 03:30N 32°42' W 117°10'3 5.4
2018-Aug-18 02:59N 32°43' W 117°13'3 6.8
2018-Aug-18 02:29N 32°42' W 117°09'1 1.5
2018-Aug-18 02:00N 32°41' W 117°09'1 2.7
2018-Aug-18 01:29N 32°42' W 117°10'0 0.0
2018-Aug-18 00:59N 32°42' W 117°10'1 1.2
2018-Aug-18 00:29N 32°43' W 117°11'1 0.2
2018-Aug-17 20:30N 32°43' W 117°10'1 1.0
2018-Aug-17 20:00N 32°43' W 117°10'4 7.6
2018-Aug-17 19:31N 32°40' W 117°14'611.6
2018-Aug-17 19:00N 32°39' W 117°20'4 7.5
2018-Aug-17 18:30N 32°38' W 117°25'3 6.0
2018-Aug-17 18:00N 32°38' W 117°28'3 6.1
2018-Aug-17 17:31N 32°37' W 117°25'713.2
2018-Aug-17 17:01N 32°37' W 117°17'510.5
2018-Aug-17 16:31N 32°41' W 117°14'3 4.2
2018-Aug-17 15:46N 32°43' W 117°10'0 0.8
2018-Aug-17 15:30N 32°43' W 117°11'0 0.0
2018-Aug-17 04:58N 32°43' W 117°10'3 6.1
2018-Aug-17 04:27N 32°41' W 117°08'1 2.0
2018-Aug-17 03:57N 32°41' W 117°09'1 1.3
2018-Aug-17 03:26N 32°42' W 117°10'3 7.0
2018-Aug-17 03:00N 32°43' W 117°13'1 1.2
2018-Aug-17 02:30N 32°43' W 117°13'2 1.3
2018-Aug-17 00:39N 32°43' W 117°10'0 1.1
2018-Aug-17 00:10N 32°43' W 117°11'210.0
2018-Aug-17 00:00N 32°42' W 117°09'1 2.4
2018-Aug-16 23:27N 32°42' W 117°11'0 1.1
2018-Aug-16 22:59N 32°43' W 117°10'3 6.9
2018-Aug-16 22:30N 32°42' W 117°14'3 4.4
2018-Aug-16 21:45N 32°43' W 117°10'1 4.5
2018-Aug-16 21:29N 32°42' W 117°10'1 1.3
2018-Aug-16 21:00N 32°42' W 117°10'1 1.4
2018-Aug-16 20:29N 32°43' W 117°11'3 6.4
2018-Aug-16 20:00N 32°42' W 117°14'3 4.3
2018-Aug-16 19:17N 32°43' W 117°10'2 6.3
2018-Aug-16 19:00N 32°41' W 117°09'1 2.5
2018-Aug-16 18:29N 32°42' W 117°10'1 1.2
2018-Aug-16 17:57N 32°43' W 117°11'3 7.1
2018-Aug-16 17:31N 32°42' W 117°14'3 3.7
2018-Aug-16 16:37N 32°43' W 117°10'0 2.4
2018-Aug-16 16:30N 32°43' W 117°11'0 0.0
2018-Aug-15 01:49N 32°43' W 117°11'0 1.0
2018-Aug-15 01:24N 32°43' W 117°11'3 8.1
2018-Aug-15 01:00N 32°42' W 117°14'3 5.9
2018-Aug-15 00:26N 32°43' W 117°10'2 3.5
2018-Aug-14 23:58N 32°42' W 117°09'1 2.8
2018-Aug-14 23:28N 32°43' W 117°11'0 0.9
2018-Aug-14 22:59N 32°43' W 117°10'3 6.6
2018-Aug-14 22:30N 32°42' W 117°14'3 6.3
2018-Aug-14 22:00N 32°43' W 117°10'1 2.3
2018-Aug-14 21:30N 32°42' W 117°10'1 1.1
2018-Aug-14 21:00N 32°42' W 117°10'1 1.4
2018-Aug-14 20:28N 32°43' W 117°10'0 0.6
2018-Aug-14 20:01N 32°43' W 117°11'0 0.0
2018-Aug-14 01:52N 32°43' W 117°11'0 0.4
2018-Aug-14 01:30N 32°43' W 117°10'3 6.6
2018-Aug-14 01:00N 32°42' W 117°14'3 6.6
2018-Aug-14 00:30N 32°43' W 117°10'1 2.7
2018-Aug-13 23:59N 32°42' W 117°10'1 2.5
2018-Aug-13 23:26N 32°43' W 117°11'0 0.5
2018-Aug-13 22:55N 32°43' W 117°11'3 5.6
2018-Aug-13 22:26N 32°42' W 117°14'3 6.3
2018-Aug-13 22:00N 32°43' W 117°10'1 1.7
2018-Aug-13 21:30N 32°42' W 117°10'0 0.4
2018-Aug-13 20:59N 32°42' W 117°10'1 1.6
2018-Aug-13 20:30N 32°43' W 117°10'1 1.0
2018-Aug-13 19:54N 32°43' W 117°11'3 7.1
2018-Aug-13 19:31N 32°41' W 117°14'4 8.9
2018-Aug-13 19:00N 32°38' W 117°18'713.1
2018-Aug-13 18:30N 32°40' W 117°25'5 9.0
2018-Aug-13 18:00N 32°41' W 117°31'4 8.4
2018-Aug-13 17:31N 32°39' W 117°26'713.5
2018-Aug-13 17:01N 32°38' W 117°18'5 9.6
2018-Aug-13 16:30N 32°41' W 117°14'3 6.7
2018-Aug-13 16:00N 32°43' W 117°10'0 0.0
2018-Aug-13 15:30N 32°43' W 117°10'0 0.0
2018-Aug-12 02:04N 32°43' W 117°10'0 0.8
2018-Aug-12 01:27N 32°43' W 117°10'3 6.4
2018-Aug-12 01:00N 32°42' W 117°14'3 4.0
2018-Aug-12 00:19N 32°43' W 117°11'3 7.9
2018-Aug-11 23:59N 32°41' W 117°09'2 3.9
2018-Aug-11 23:26N 32°42' W 117°11'1 1.2
2018-Aug-11 23:00N 32°43' W 117°11'3 6.4
2018-Aug-11 22:30N 32°42' W 117°14'3 3.7
2018-Aug-11 21:40N 32°43' W 117°11'211.1
2018-Aug-11 21:30N 32°42' W 117°09'1 2.8
2018-Aug-11 20:59N 32°42' W 117°11'1 0.6
2018-Aug-11 20:04N 32°43' W 117°10'1 9.2
2018-Aug-11 19:59N 32°43' W 117°11'611.4
2018-Aug-11 19:30N 32°39' W 117°16'714.3
2018-Aug-11 19:00N 32°39' W 117°24'3 5.1
2018-Aug-11 18:30N 32°40' W 117°27'4 8.3
2018-Aug-11 18:00N 32°36' W 117°25'4 8.2
2018-Aug-11 17:30N 32°35' W 117°21'611.9
2018-Aug-11 17:00N 32°37' W 117°15'5 9.8
2018-Aug-11 16:30N 32°42' W 117°14'3 0.3
2018-Aug-11 06:37N 32°43' W 117°11'0 0.4
2018-Aug-11 05:51N 32°43' W 117°11'2 5.0
2018-Aug-11 05:24N 32°41' W 117°09'3 6.6
2018-Aug-11 04:57N 32°43' W 117°12'1 3.1
2018-Aug-11 04:30N 32°43' W 117°13'2 4.1
2018-Aug-11 03:56N 32°43' W 117°10'0 0.2
2018-Aug-11 02:51N 32°43' W 117°11'2 5.8
2018-Aug-11 02:30N 32°41' W 117°09'2 3.8
2018-Aug-11 02:00N 32°43' W 117°11'  
Track history (hours):
 
Tides and Currents Weather Stations Pressure Air Temp Water Temp Dewpoint Dewpoint Depression Visibility Wind Speed Wind Dir Waves Ship Positions

Adventure Hornblower

Owner: Hornblower Cruises and Events, San Diego, CA. More information available from US FCC via Universal Licensing System and Coast Guard Vessel Documentation Center.

Last reported at 2018-Aug-21 01:42 UTC. Time now 2018-Aug-21 04:21 UTC.
Position N 32°43' W 117°11'.

Length 49 m; draft 1.8 m.

Type: Passenger vessel. MMSI: 366793760.

Date/timePositionNaut miles runAvg speedWind from/ knotsBaromVisibWave heightAir tempDewpointWater temp
2018-Aug-21 01:42N 32°43' W 117°11'0 1.6
2018-Aug-21 01:27N 32°43' W 117°10'3 7.4
2018-Aug-21 01:03N 32°42' W 117°14'112.4
2018-Aug-21 01:00N 32°41' W 117°14'3 4.7
2018-Aug-21 00:19N 32°43' W 117°10'1 2.6
2018-Aug-21 00:01N 32°42' W 117°10'011.3
2018-Aug-20 23:59N 32°42' W 117°10'0 0.7
2018-Aug-20 23:27N 32°42' W 117°10'1 1.6
2018-Aug-20 22:52N 32°43' W 117°11'3 9.3
2018-Aug-20 22:31N 32°42' W 117°14'3 4.1
2018-Aug-20 21:41N 32°43' W 117°10'1 3.3
2018-Aug-20 21:30N 32°42' W 117°10'0 0.7
2018-Aug-20 20:52N 32°42' W 117°11'1 0.8
2018-Aug-20 20:15N 32°43' W 117°10'0 0.0
2018-Aug-20 20:03N 32°43' W 117°10'0 0.2
2018-Aug-20 19:44N 32°43' W 117°10'2 8.4
2018-Aug-20 19:30N 32°43' W 117°13'4 9.8
2018-Aug-20 19:03N 32°39' W 117°15'113.2
2018-Aug-20 19:00N 32°39' W 117°15'713.7
2018-Aug-20 18:30N 32°42' W 117°23'612.2
2018-Aug-20 18:03N 32°46' W 117°26'113.7
2018-Aug-20 18:00N 32°47' W 117°27'2 3.8
2018-Aug-20 17:30N 32°46' W 117°25'612.9
2018-Aug-20 17:04N 32°41' W 117°21'112.5
2018-Aug-20 17:00N 32°41' W 117°20'510.4
2018-Aug-20 16:30N 32°40' W 117°14'4 6.9
2018-Aug-20 15:54N 32°43' W 117°10'0 0.0
2018-Aug-20 15:30N 32°43' W 117°10'0 0.0
2018-Aug-20 03:27N 32°43' W 117°11'0 0.5
2018-Aug-20 02:51N 32°43' W 117°11'2 6.3
2018-Aug-20 02:30N 32°41' W 117°09'3 6.5
2018-Aug-20 02:00N 32°43' W 117°12'2 3.8
2018-Aug-20 01:30N 32°42' W 117°14'3 2.2
2018-Aug-20 00:09N 32°43' W 117°11'0 1.3
2018-Aug-19 23:59N 32°43' W 117°11'0 0.0
2018-Aug-19 20:27N 32°43' W 117°11'1 1.5
2018-Aug-19 19:59N 32°43' W 117°11'510.6
2018-Aug-19 19:30N 32°40' W 117°16'714.9
2018-Aug-19 19:00N 32°44' W 117°24'510.9
2018-Aug-19 18:30N 32°45' W 117°30'4 8.1
2018-Aug-19 18:00N 32°48' W 117°32'611.5
2018-Aug-19 17:30N 32°45' W 117°27'713.9
2018-Aug-19 17:00N 32°40' W 117°21'611.6
2018-Aug-19 16:30N 32°40' W 117°14'4 5.4
2018-Aug-19 15:47N 32°43' W 117°10'0 0.6
2018-Aug-19 15:18N 32°43' W 117°11'0 0.0
2018-Aug-19 05:35N 32°43' W 117°10'0 5.5
2018-Aug-19 05:30N 32°43' W 117°11'4 6.7
2018-Aug-19 04:56N 32°40' W 117°08'2 4.8
2018-Aug-19 04:30N 32°42' W 117°09'0 0.6
2018-Aug-19 04:00N 32°41' W 117°09'3 6.6
2018-Aug-19 03:30N 32°43' W 117°13'3 5.3
2018-Aug-19 03:00N 32°40' W 117°14'3 6.5
2018-Aug-19 02:30N 32°43' W 117°12'1 0.2
2018-Aug-18 20:24N 32°43' W 117°11'0 0.8
2018-Aug-18 19:59N 32°43' W 117°10'2 4.2
2018-Aug-18 19:31N 32°43' W 117°13'510.5
2018-Aug-18 19:00N 32°38' W 117°16'713.1
2018-Aug-18 18:31N 32°39' W 117°23'510.3
2018-Aug-18 17:59N 32°42' W 117°29'5 9.3
2018-Aug-18 17:30N 32°41' W 117°23'3 6.6
2018-Aug-18 17:00N 32°41' W 117°20'5 9.9
2018-Aug-18 16:31N 32°40' W 117°14'4 4.0
2018-Aug-18 15:33N 32°43' W 117°10'0 0.0
2018-Aug-18 15:30N 32°43' W 117°10'0 0.0
2018-Aug-18 04:54N 32°43' W 117°10'1 2.7
2018-Aug-18 04:31N 32°42' W 117°10'0 0.0
2018-Aug-18 04:01N 32°42' W 117°10'0 0.0
2018-Aug-18 03:30N 32°42' W 117°10'3 5.4
2018-Aug-18 02:59N 32°43' W 117°13'3 6.8
2018-Aug-18 02:29N 32°42' W 117°09'1 1.5
2018-Aug-18 02:00N 32°41' W 117°09'1 2.7
2018-Aug-18 01:29N 32°42' W 117°10'0 0.0
2018-Aug-18 00:59N 32°42' W 117°10'1 1.2
2018-Aug-18 00:29N 32°43' W 117°11'1 0.2
2018-Aug-17 20:30N 32°43' W 117°10'1 1.0
2018-Aug-17 20:00N 32°43' W 117°10'4 7.6
2018-Aug-17 19:31N 32°40' W 117°14'611.6
2018-Aug-17 19:00N 32°39' W 117°20'4 7.5
2018-Aug-17 18:30N 32°38' W 117°25'3 6.0
2018-Aug-17 18:00N 32°38' W 117°28'3 6.1
2018-Aug-17 17:31N 32°37' W 117°25'713.2
2018-Aug-17 17:01N 32°37' W 117°17'510.5
2018-Aug-17 16:31N 32°41' W 117°14'3 4.2
2018-Aug-17 15:46N 32°43' W 117°10'0 0.8
2018-Aug-17 15:30N 32°43' W 117°11'0 0.0
2018-Aug-17 04:58N 32°43' W 117°10'3 6.1
2018-Aug-17 04:27N 32°41' W 117°08'1 2.0
2018-Aug-17 03:57N 32°41' W 117°09'1 1.3
2018-Aug-17 03:26N 32°42' W 117°10'3 7.0
2018-Aug-17 03:00N 32°43' W 117°13'1 1.2
2018-Aug-17 02:30N 32°43' W 117°13'2 1.3
2018-Aug-17 00:39N 32°43' W 117°10'0 1.1
2018-Aug-17 00:10N 32°43' W 117°11'210.0
2018-Aug-17 00:00N 32°42' W 117°09'1 2.4
2018-Aug-16 23:27N 32°42' W 117°11'0 1.1
2018-Aug-16 22:59N 32°43' W 117°10'3 6.9
2018-Aug-16 22:30N 32°42' W 117°14'3 4.4
2018-Aug-16 21:45N 32°43' W 117°10'1 4.5
2018-Aug-16 21:29N 32°42' W 117°10'1 1.3
2018-Aug-16 21:00N 32°42' W 117°10'1 1.4
2018-Aug-16 20:29N 32°43' W 117°11'3 6.4
2018-Aug-16 20:00N 32°42' W 117°14'3 4.3
2018-Aug-16 19:17N 32°43' W 117°10'2 6.3
2018-Aug-16 19:00N 32°41' W 117°09'1 2.5
2018-Aug-16 18:29N 32°42' W 117°10'1 1.2
2018-Aug-16 17:57N 32°43' W 117°11'3 7.1
2018-Aug-16 17:31N 32°42' W 117°14'3 3.7
2018-Aug-16 16:37N 32°43' W 117°10'0 2.4
2018-Aug-16 16:30N 32°43' W 117°11'0 0.0
2018-Aug-15 01:49N 32°43' W 117°11'0 1.0
2018-Aug-15 01:24N 32°43' W 117°11'3 8.1
2018-Aug-15 01:00N 32°42' W 117°14'3 5.9
2018-Aug-15 00:26N 32°43' W 117°10'2 3.5
2018-Aug-14 23:58N 32°42' W 117°09'1 2.8
2018-Aug-14 23:28N 32°43' W 117°11'0 0.9
2018-Aug-14 22:59N 32°43' W 117°10'3 6.6
2018-Aug-14 22:30N 32°42' W 117°14'3 6.3
2018-Aug-14 22:00N 32°43' W 117°10'1 2.3
2018-Aug-14 21:30N 32°42' W 117°10'1 1.1
2018-Aug-14 21:00N 32°42' W 117°10'1 1.4
2018-Aug-14 20:28N 32°43' W 117°10'0 0.6
2018-Aug-14 20:01N 32°43' W 117°11'0 0.0
2018-Aug-14 01:52N 32°43' W 117°11'0 0.4
2018-Aug-14 01:30N 32°43' W 117°10'3 6.6
2018-Aug-14 01:00N 32°42' W 117°14'3 6.6
2018-Aug-14 00:30N 32°43' W 117°10'1 2.7
2018-Aug-13 23:59N 32°42' W 117°10'1 2.5
2018-Aug-13 23:26N 32°43' W 117°11'0 0.5
2018-Aug-13 22:55N 32°43' W 117°11'3 5.6
2018-Aug-13 22:26N 32°42' W 117°14'3 6.3
2018-Aug-13 22:00N 32°43' W 117°10'1 1.7
2018-Aug-13 21:30N 32°42' W 117°10'0 0.4
2018-Aug-13 20:59N 32°42' W 117°10'1 1.6
2018-Aug-13 20:30N 32°43' W 117°10'1 1.0
2018-Aug-13 19:54N 32°43' W 117°11'3 7.1
2018-Aug-13 19:31N 32°41' W 117°14'4 8.9
2018-Aug-13 19:00N 32°38' W 117°18'713.1
2018-Aug-13 18:30N 32°40' W 117°25'5 9.0
2018-Aug-13 18:00N 32°41' W 117°31'4 8.4
2018-Aug-13 17:31N 32°39' W 117°26'713.5
2018-Aug-13 17:01N 32°38' W 117°18'5 9.6
2018-Aug-13 16:30N 32°41' W 117°14'3 6.7
2018-Aug-13 16:00N 32°43' W 117°10'0 0.0
2018-Aug-13 15:30N 32°43' W 117°10'0 0.0
2018-Aug-12 02:04N 32°43' W 117°10'0 0.8
2018-Aug-12 01:27N 32°43' W 117°10'3 6.4
2018-Aug-12 01:00N 32°42' W 117°14'3 4.0
2018-Aug-12 00:19N 32°43' W 117°11'3 7.9
2018-Aug-11 23:59N 32°41' W 117°09'2 3.9
2018-Aug-11 23:26N 32°42' W 117°11'1 1.2
2018-Aug-11 23:00N 32°43' W 117°11'3 6.4
2018-Aug-11 22:30N 32°42' W 117°14'3 3.7
2018-Aug-11 21:40N 32°43' W 117°11'211.1
2018-Aug-11 21:30N 32°42' W 117°09'1 2.8
2018-Aug-11 20:59N 32°42' W 117°11'1 0.6
2018-Aug-11 20:04N 32°43' W 117°10'1 9.2
2018-Aug-11 19:59N 32°43' W 117°11'611.4
2018-Aug-11 19:30N 32°39' W 117°16'714.3
2018-Aug-11 19:00N 32°39' W 117°24'3 5.1
2018-Aug-11 18:30N 32°40' W 117°27'4 8.3
2018-Aug-11 18:00N 32°36' W 117°25'4 8.2
2018-Aug-11 17:30N 32°35' W 117°21'611.9
2018-Aug-11 17:00N 32°37' W 117°15'5 9.8
2018-Aug-11 16:30N 32°42' W 117°14'3 0.3
2018-Aug-11 06:37N 32°43' W 117°11'0 0.4
2018-Aug-11 05:51N 32°43' W 117°11'2 5.0
2018-Aug-11 05:24N 32°41' W 117°09'3 6.6
2018-Aug-11 04:57N 32°43' W 117°12'1 3.1
2018-Aug-11 04:30N 32°43' W 117°13'2 4.1
2018-Aug-11 03:56N 32°43' W 117°10'0 0.2
2018-Aug-11 02:51N 32°43' W 117°11'2 5.8
2018-Aug-11 02:30N 32°41' W 117°09'2 3.8
2018-Aug-11 02:00N 32°43' W 117°11'  

Dump ship's entire track history